Cannon Air Force Base Clovis US
ICAO: KCVS
IATA: CVS
Category: Large
Scheduled Services: No

Elevation: 4295 ft
TransAlt. 18000 ft.

Airport Communications:
APP:125.5
ATIS:119.1
CLNC DEL:120.2
DEP:125.5
GND:121.9
PMSV METRO:34.46
COMD POST:38.13
PTD:139.6
TWR:120.4

KCVS Zoom In..

Runways:

(A) RW 04 length 10003 ft width 150 ft
ILS 108.50 / hdg 35

(B) RW 13 length 8196 ft width 150 ft
ILS 110.35 / hdg 125

(C) RW 22 length 10003 ft width 150 ft
ILS 109.70 / hdg 215

(D) RW 31 length 8196 ft width 150 ft
ILS 108.30 / hdg 305

Location; KCVS
Day. 16 / Time. 17.58 Zulu
* Altimeter: 30.20
* Temperature: 31° c. 87.8°f.
* Wind from: 130° Speed 13 kn with Gusts up to 20 kn.
Dewpoint: 15° c.
Visibility: 10 Statute Miles.
Clouds: Clear (automated report).

KCVS 161758Z AUTO 13013G20KT 10SM CLR 31/15 A3020 RMK AO2 SLP158 T03120152 10313 20194 50001 $


Wind From 130°
Speed 13 kn.

 
 
jpsmedia.com for Web Design worldairports.se 2018   terms of use